| Date | Time | Temp. (oF) | Dew Point (oF) | Rel. Hum. (%) | Press. (in.) | Wind Dir. (deg.) | Wind Speed (mph) | Hourly Rainfall (i n.) |
|
|---|---|---|---|---|---|---|---|---|---|
| 1 | 06/03 | 24:00 | 66 | 63 | 91 | 30.06 | 50 | 0 | 0.00 |
| 2 | 06/02 | 23:00 | 66 | 62 | 89 | 30.10 | 310 | 7 | 0.00 |
| 3 | 06/02 | 22:00 | 66 | 62 | 88 | 30.05 | 130 | 1 | 0.01 |
| 4 | 06/02 | 21:00 | 66 | 61 | 85 | 30.02 | 130 | 1 | 0.28 |
| 5 | 06/02 | 20:00 | 71 | 59 | 68 | 30.02 | 330 | 10 | 0.00 |
| 6 | 06/02 | 19:00 | 75 | 68 | 79 | 29.98 | 120 | 0 | 0.00 |
| 7 | 06/02 | 18:00 | 75 | 68 | 79 | 29.99 | 120 | 1 | 0.01 |
| 8 | 06/02 | 17:00 | 76 | 66 | 72 | 30.03 | 270 | 1 | 0.06 |
| 9 | 06/02 | 16:00 | 85 | 63 | 49 | 30.08 | 290 | 12 | 0.00 |
| 10 | 06/02 | 15:00 | 89 | 61 | 41 | 30.05 | 130 | 4 | 0.00 |
| 11 | 06/02 | 14:00 | 88 | 63 | 44 | 30.05 | 350 | 6 | 0.00 |
| 12 | 06/02 | 13:00 | 89 | 63 | 43 | 30.07 | 150 | 10 | 0.00 |
| 13 | 06/02 | 12:00 | 87 | 63 | 46 | 30.08 | 270 | 4 | 0.00 |
| 14 | 06/02 | 11:00 | 84 | 64 | 52 | 30.10 | 150 | 4 | 0.00 |
| 15 | 06/02 | 10:00 | 76 | 61 | 62 | 30.09 | 130 | 4 | 0.00 |
| 16 | 06/02 | 09:00 | 72 | 59 | 66 | 30.09 | 280 | 0 | 0.00 |
| 17 | 06/02 | 08:00 | 69 | 60 | 75 | 30.10 | 90 | 2 | 0.00 |
| 18 | 06/02 | 07:00 | 67 | 59 | 78 | 30.13 | 350 | 0 | 0.00 |
| 19 | 06/02 | 06:00 | 67 | 58 | 75 | 30.17 | 350 | 0 | 0.00 |
| 20 | 06/02 | 05:00 | 67 | 58 | 75 | 30.16 | 350 | 0 | 0.00 |
| 21 | 06/02 | 04:00 | 67 | 58 | 75 | 30.15 | 350 | 0 | 0.00 |
| 22 | 06/02 | 03:00 | 67 | 59 | 76 | 30.15 | 350 | 0 | 0.00 |
| 23 | 06/02 | 02:00 | 68 | 60 | 78 | 30.15 | 350 | 0 | 0.00 |
| 24 | 06/02 | 01:00 | 69 | 62 | 80 | 30.15 | 350 | 1 | 0.00 |